Weather at Dover Air Force Base

Public forecast

Using degrees Fahrenheit for public forecast. Weather courtesy of forecast.io.

Current aviation weather report (METAR) for Dover Air Force Base

2024/06/21 15:55 (retrieved 54 minutes ago)

KDOV 211555Z COR AUTO 18005KT 10SM FEW160 FEW200 31/19 A3019 RMK AO2 SLP227 T03140194 COR 1557

Aviation forecast (TAF) for Dover Air Force Base

2024/06/21 16:21 (retrieved 28 minutes ago)

TAF KDOV 211600Z 2116/2222 23006KT 9999 FEW150 QNH3010INS BECMG 2204/2205 21009KT 9999 SCT050 QNH2993INS TX32/2120Z TN22/2210Z